sensor_id;sensor_type;location;lat;lon;timestamp;temperature;humidity
44863;DHT22;30597;49.628;10.850;2023-02-22T00:00:38;20.50;52.00
44863;DHT22;30597;49.628;10.850;2023-02-22T00:03:18;20.50;52.00
44863;DHT22;30597;49.628;10.850;2023-02-22T00:05:53;20.50;52.00
44863;DHT22;30597;49.628;10.850;2023-02-22T00:08:21;20.40;52.10
44863;DHT22;30597;49.628;10.850;2023-02-22T00:10:47;20.40;52.20
44863;DHT22;30597;49.628;10.850;2023-02-22T00:13:16;20.30;52.20
44863;DHT22;30597;49.628;10.850;2023-02-22T00:15:42;20.30;52.30
44863;DHT22;30597;49.628;10.850;2023-02-22T00:18:12;20.30;53.00
44863;DHT22;30597;49.628;10.850;2023-02-22T00:20:38;20.30;52.50
44863;DHT22;30597;49.628;10.850;2023-02-22T00:23:06;20.30;52.50
44863;DHT22;30597;49.628;10.850;2023-02-22T00:25:32;20.30;52.60
44863;DHT22;30597;49.628;10.850;2023-02-22T00:27:58;20.20;52.60
44863;DHT22;30597;49.628;10.850;2023-02-22T00:30:26;20.20;52.60
44863;DHT22;30597;49.628;10.850;2023-02-22T00:32:54;20.30;52.80
44863;DHT22;30597;49.628;10.850;2023-02-22T00:35:23;20.30;52.80
44863;DHT22;30597;49.628;10.850;2023-02-22T00:37:50;20.20;52.70
44863;DHT22;30597;49.628;10.850;2023-02-22T00:40:19;20.20;52.60
44863;DHT22;30597;49.628;10.850;2023-02-22T00:42:45;20.20;52.60
44863;DHT22;30597;49.628;10.850;2023-02-22T00:45:12;20.20;52.50
44863;DHT22;30597;49.628;10.850;2023-02-22T00:47:37;20.20;52.50
44863;DHT22;30597;49.628;10.850;2023-02-22T00:50:04;20.20;52.60
44863;DHT22;30597;49.628;10.850;2023-02-22T00:52:29;20.10;52.50
44863;DHT22;30597;49.628;10.850;2023-02-22T00:54:56;20.10;52.60
44863;DHT22;30597;49.628;10.850;2023-02-22T00:57:22;20.10;52.60
44863;DHT22;30597;49.628;10.850;2023-02-22T00:59:48;20.00;52.60
44863;DHT22;30597;49.628;10.850;2023-02-22T01:02:14;20.00;52.70
44863;DHT22;30597;49.628;10.850;2023-02-22T01:04:40;20.00;52.70
44863;DHT22;30597;49.628;10.850;2023-02-22T01:07:06;19.90;52.70
44863;DHT22;30597;49.628;10.850;2023-02-22T01:09:31;19.90;52.80
44863;DHT22;30597;49.628;10.850;2023-02-22T01:11:57;19.90;52.80
44863;DHT22;30597;49.628;10.850;2023-02-22T01:14:25;19.90;52.80
44863;DHT22;30597;49.628;10.850;2023-02-22T01:16:54;19.90;52.80
44863;DHT22;30597;49.628;10.850;2023-02-22T01:19:21;19.80;52.80
44863;DHT22;30597;49.628;10.850;2023-02-22T01:21:48;19.80;52.80
44863;DHT22;30597;49.628;10.850;2023-02-22T01:24:15;19.80;52.90
44863;DHT22;30597;49.628;10.850;2023-02-22T01:26:49;19.80;52.90
44863;DHT22;30597;49.628;10.850;2023-02-22T01:29:16;19.80;52.90
44863;DHT22;30597;49.628;10.850;2023-02-22T01:31:42;19.80;52.90
44863;DHT22;30597;49.628;10.850;2023-02-22T01:34:15;19.70;52.80
44863;DHT22;30597;49.628;10.850;2023-02-22T01:36:41;19.70;52.80
44863;DHT22;30597;49.628;10.850;2023-02-22T01:39:07;19.70;53.00
44863;DHT22;30597;49.628;10.850;2023-02-22T01:41:35;19.70;53.00
44863;DHT22;30597;49.628;10.850;2023-02-22T01:46:53;19.70;53.30
44863;DHT22;30597;49.628;10.850;2023-02-22T01:49:19;19.70;53.30
44863;DHT22;30597;49.628;10.850;2023-02-22T01:51:49;19.70;53.40
44863;DHT22;30597;49.628;10.850;2023-02-22T01:54:27;19.70;53.50
44863;DHT22;30597;49.628;10.850;2023-02-22T01:59:37;19.60;53.50
44863;DHT22;30597;49.628;10.850;2023-02-22T02:02:03;19.60;53.60
44863;DHT22;30597;49.628;10.850;2023-02-22T02:04:30;19.60;53.60
44863;DHT22;30597;49.628;10.850;2023-02-22T02:07:00;19.60;53.70
44863;DHT22;30597;49.628;10.850;2023-02-22T02:09:55;19.70;53.70
44863;DHT22;30597;49.628;10.850;2023-02-22T02:12:22;19.70;53.60
44863;DHT22;30597;49.628;10.850;2023-02-22T02:14:48;19.60;53.70
44863;DHT22;30597;49.628;10.850;2023-02-22T02:17:16;19.60;53.70
44863;DHT22;30597;49.628;10.850;2023-02-22T02:20:07;19.60;53.80
44863;DHT22;30597;49.628;10.850;2023-02-22T02:25:34;19.50;53.70
44863;DHT22;30597;49.628;10.850;2023-02-22T02:28:30;19.50;53.80
44863;DHT22;30597;49.628;10.850;2023-02-22T02:42:14;19.50;54.20
44863;DHT22;30597;49.628;10.850;2023-02-22T02:44:52;19.50;54.30
44863;DHT22;30597;49.628;10.850;2023-02-22T02:47:24;19.50;54.50
44863;DHT22;30597;49.628;10.850;2023-02-22T02:50:04;19.50;54.50
44863;DHT22;30597;49.628;10.850;2023-02-22T02:52:33;19.50;54.50
44863;DHT22;30597;49.628;10.850;2023-02-22T02:55:01;19.50;54.60
44863;DHT22;30597;49.628;10.850;2023-02-22T02:57:27;19.50;54.60
44863;DHT22;30597;49.628;10.850;2023-02-22T02:59:53;19.50;54.70
44863;DHT22;30597;49.628;10.850;2023-02-22T03:13:29;19.40;54.80
44863;DHT22;30597;49.628;10.850;2023-02-22T03:16:17;19.40;54.80
44863;DHT22;30597;49.628;10.850;2023-02-22T03:30:22;19.30;54.80
44863;DHT22;30597;49.628;10.850;2023-02-22T03:32:53;19.30;54.90
44863;DHT22;30597;49.628;10.850;2023-02-22T03:35:24;19.20;54.90
44863;DHT22;30597;49.628;10.850;2023-02-22T03:37:54;19.20;54.90
44863;DHT22;30597;49.628;10.850;2023-02-22T03:40:26;19.30;55.00
44863;DHT22;30597;49.628;10.850;2023-02-22T03:43:21;19.20;54.90
44863;DHT22;30597;49.628;10.850;2023-02-22T03:45:45;19.30;55.00
44863;DHT22;30597;49.628;10.850;2023-02-22T03:48:20;19.20;55.00
44863;DHT22;30597;49.628;10.850;2023-02-22T03:50:47;19.20;55.00
44863;DHT22;30597;49.628;10.850;2023-02-22T03:53:14;19.20;55.20
44863;DHT22;30597;49.628;10.850;2023-02-22T03:55:41;19.30;55.40
44863;DHT22;30597;49.628;10.850;2023-02-22T03:58:10;19.30;55.60
44863;DHT22;30597;49.628;10.850;2023-02-22T04:00:36;19.30;55.40
44863;DHT22;30597;49.628;10.850;2023-02-22T04:03:02;19.30;55.30
44863;DHT22;30597;49.628;10.850;2023-02-22T04:05:28;19.30;55.30
44863;DHT22;30597;49.628;10.850;2023-02-22T04:07:55;19.30;55.30
44863;DHT22;30597;49.628;10.850;2023-02-22T04:10:22;19.30;55.20
44863;DHT22;30597;49.628;10.850;2023-02-22T04:12:48;19.30;55.20
44863;DHT22;30597;49.628;10.850;2023-02-22T04:15:18;19.30;55.20
44863;DHT22;30597;49.628;10.850;2023-02-22T04:17:44;19.30;55.10
44863;DHT22;30597;49.628;10.850;2023-02-22T04:20:10;19.30;55.10
44863;DHT22;30597;49.628;10.850;2023-02-22T04:22:38;19.30;55.10
44863;DHT22;30597;49.628;10.850;2023-02-22T04:25:05;19.30;55.20
44863;DHT22;30597;49.628;10.850;2023-02-22T04:27:30;19.40;55.20
44863;DHT22;30597;49.628;10.850;2023-02-22T04:29:56;19.40;55.20
44863;DHT22;30597;49.628;10.850;2023-02-22T04:32:22;19.40;55.20
44863;DHT22;30597;49.628;10.850;2023-02-22T04:34:47;19.40;55.30
44863;DHT22;30597;49.628;10.850;2023-02-22T04:37:13;19.40;55.40
44863;DHT22;30597;49.628;10.850;2023-02-22T04:39:38;19.40;55.30
44863;DHT22;30597;49.628;10.850;2023-02-22T04:42:04;19.50;55.30
44863;DHT22;30597;49.628;10.850;2023-02-22T04:44:30;19.60;55.50
44863;DHT22;30597;49.628;10.850;2023-02-22T04:46:55;19.50;55.20
44863;DHT22;30597;49.628;10.850;2023-02-22T04:49:22;19.60;55.10
44863;DHT22;30597;49.628;10.850;2023-02-22T04:51:47;19.60;55.10
44863;DHT22;30597;49.628;10.850;2023-02-22T04:54:13;19.60;54.90
44863;DHT22;30597;49.628;10.850;2023-02-22T04:56:38;19.70;54.90
44863;DHT22;30597;49.628;10.850;2023-02-22T04:59:04;19.70;55.00
44863;DHT22;30597;49.628;10.850;2023-02-22T05:01:31;19.70;55.00
44863;DHT22;30597;49.628;10.850;2023-02-22T05:03:58;19.60;54.80
44863;DHT22;30597;49.628;10.850;2023-02-22T05:06:23;19.60;55.00
44863;DHT22;30597;49.628;10.850;2023-02-22T05:08:49;19.60;55.00
44863;DHT22;30597;49.628;10.850;2023-02-22T05:11:14;19.50;55.00
44863;DHT22;30597;49.628;10.850;2023-02-22T05:13:40;19.50;55.20
44863;DHT22;30597;49.628;10.850;2023-02-22T05:16:06;19.40;55.20
44863;DHT22;30597;49.628;10.850;2023-02-22T05:18:32;19.40;55.30
44863;DHT22;30597;49.628;10.850;2023-02-22T05:20:57;19.30;55.30
44863;DHT22;30597;49.628;10.850;2023-02-22T05:23:23;19.30;55.30
44863;DHT22;30597;49.628;10.850;2023-02-22T05:25:48;19.30;55.20
44863;DHT22;30597;49.628;10.850;2023-02-22T05:28:14;19.30;55.30
44863;DHT22;30597;49.628;10.850;2023-02-22T05:30:40;19.30;55.30
44863;DHT22;30597;49.628;10.850;2023-02-22T05:33:07;19.30;55.20
44863;DHT22;30597;49.628;10.850;2023-02-22T05:35:32;19.30;55.20
44863;DHT22;30597;49.628;10.850;2023-02-22T05:37:58;19.30;55.10
44863;DHT22;30597;49.628;10.850;2023-02-22T05:40:26;19.30;55.10
44863;DHT22;30597;49.628;10.850;2023-02-22T05:42:53;19.30;55.20
44863;DHT22;30597;49.628;10.850;2023-02-22T05:45:21;19.30;55.20
44863;DHT22;30597;49.628;10.850;2023-02-22T05:47:48;19.30;55.30
44863;DHT22;30597;49.628;10.850;2023-02-22T05:50:14;19.30;55.20
44863;DHT22;30597;49.628;10.850;2023-02-22T05:52:40;19.30;55.20
44863;DHT22;30597;49.628;10.850;2023-02-22T05:55:07;19.30;55.20
44863;DHT22;30597;49.628;10.850;2023-02-22T05:57:33;19.20;55.20
44863;DHT22;30597;49.628;10.850;2023-02-22T05:59:59;19.20;55.20
44863;DHT22;30597;49.628;10.850;2023-02-22T06:02:25;19.20;55.50
44863;DHT22;30597;49.628;10.850;2023-02-22T06:04:50;19.20;55.30
44863;DHT22;30597;49.628;10.850;2023-02-22T06:07:16;19.20;55.60
44863;DHT22;30597;49.628;10.850;2023-02-22T06:09:41;19.10;55.50
44863;DHT22;30597;49.628;10.850;2023-02-22T06:12:08;19.10;55.60
44863;DHT22;30597;49.628;10.850;2023-02-22T06:14:34;19.00;55.50
44863;DHT22;30597;49.628;10.850;2023-02-22T06:16:59;19.00;55.60
44863;DHT22;30597;49.628;10.850;2023-02-22T06:19:25;19.00;55.70
44863;DHT22;30597;49.628;10.850;2023-02-22T06:21:52;19.00;55.80
44863;DHT22;30597;49.628;10.850;2023-02-22T06:24:18;19.00;55.70
44863;DHT22;30597;49.628;10.850;2023-02-22T06:26:43;19.00;55.80
44863;DHT22;30597;49.628;10.850;2023-02-22T06:29:12;19.00;55.70
44863;DHT22;30597;49.628;10.850;2023-02-22T06:31:37;19.00;55.70
44863;DHT22;30597;49.628;10.850;2023-02-22T06:34:03;19.00;55.70
44863;DHT22;30597;49.628;10.850;2023-02-22T06:36:29;19.00;55.80
44863;DHT22;30597;49.628;10.850;2023-02-22T06:38:55;19.00;55.80
44863;DHT22;30597;49.628;10.850;2023-02-22T06:41:21;19.00;55.80
44863;DHT22;30597;49.628;10.850;2023-02-22T06:43:47;19.00;55.80
44863;DHT22;30597;49.628;10.850;2023-02-22T06:46:12;19.00;55.80
44863;DHT22;30597;49.628;10.850;2023-02-22T06:48:38;19.00;55.80
44863;DHT22;30597;49.628;10.850;2023-02-22T06:51:06;19.00;55.70
44863;DHT22;30597;49.628;10.850;2023-02-22T06:53:33;19.00;56.40
44863;DHT22;30597;49.628;10.850;2023-02-22T06:55:59;19.00;55.70
44863;DHT22;30597;49.628;10.850;2023-02-22T06:58:25;18.90;55.60
44863;DHT22;30597;49.628;10.850;2023-02-22T07:00:51;18.90;55.60
44863;DHT22;30597;49.628;10.850;2023-02-22T07:03:17;18.90;55.50
44863;DHT22;30597;49.628;10.850;2023-02-22T07:05:42;19.00;55.50
44863;DHT22;30597;49.628;10.850;2023-02-22T07:08:09;19.00;55.60
44863;DHT22;30597;49.628;10.850;2023-02-22T07:10:36;19.10;55.70
44863;DHT22;30597;49.628;10.850;2023-02-22T07:13:03;19.30;55.50
44863;DHT22;30597;49.628;10.850;2023-02-22T07:15:30;19.50;55.90
44863;DHT22;30597;49.628;10.850;2023-02-22T07:17:57;19.60;55.20
44863;DHT22;30597;49.628;10.850;2023-02-22T07:20:23;19.70;54.80
44863;DHT22;30597;49.628;10.850;2023-02-22T07:22:49;19.80;54.50
44863;DHT22;30597;49.628;10.850;2023-02-22T07:25:15;19.90;54.20
44863;DHT22;30597;49.628;10.850;2023-02-22T07:27:41;20.10;54.50
44863;DHT22;30597;49.628;10.850;2023-02-22T07:30:18;20.10;54.30
44863;DHT22;30597;49.628;10.850;2023-02-22T07:32:44;20.30;54.20
44863;DHT22;30597;49.628;10.850;2023-02-22T07:37:49;20.40;54.20
44863;DHT22;30597;49.628;10.850;2023-02-22T07:40:16;20.50;54.00
44863;DHT22;30597;49.628;10.850;2023-02-22T07:45:20;20.60;53.70
44863;DHT22;30597;49.628;10.850;2023-02-22T07:47:46;20.70;53.70
44863;DHT22;30597;49.628;10.850;2023-02-22T07:50:14;20.70;53.40
44863;DHT22;30597;49.628;10.850;2023-02-22T07:52:44;20.70;53.50
44863;DHT22;30597;49.628;10.850;2023-02-22T07:55:09;20.80;53.50
44863;DHT22;30597;49.628;10.850;2023-02-22T07:57:35;20.80;53.40
44863;DHT22;30597;49.628;10.850;2023-02-22T08:00:00;20.90;53.40
44863;DHT22;30597;49.628;10.850;2023-02-22T08:02:26;20.90;53.20
44863;DHT22;30597;49.628;10.850;2023-02-22T08:04:52;21.00;53.40
44863;DHT22;30597;49.628;10.850;2023-02-22T08:07:17;21.00;53.20
44863;DHT22;30597;49.628;10.850;2023-02-22T08:09:43;21.00;53.10
44863;DHT22;30597;49.628;10.850;2023-02-22T08:12:08;21.10;53.00
44863;DHT22;30597;49.628;10.850;2023-02-22T08:14:34;21.10;53.00
44863;DHT22;30597;49.628;10.850;2023-02-22T08:16:59;21.20;53.60
44863;DHT22;30597;49.628;10.850;2023-02-22T08:19:25;21.20;53.00
44863;DHT22;30597;49.628;10.850;2023-02-22T08:21:50;21.20;52.30
44863;DHT22;30597;49.628;10.850;2023-02-22T08:24:16;21.30;52.40
44863;DHT22;30597;49.628;10.850;2023-02-22T08:26:45;21.30;52.10
44863;DHT22;30597;49.628;10.850;2023-02-22T08:29:11;21.40;52.80
44863;DHT22;30597;49.628;10.850;2023-02-22T08:31:39;21.30;52.30
44863;DHT22;30597;49.628;10.850;2023-02-22T08:34:04;21.40;52.10
44863;DHT22;30597;49.628;10.850;2023-02-22T08:36:30;21.40;51.90
44863;DHT22;30597;49.628;10.850;2023-02-22T08:38:57;21.30;51.30
44863;DHT22;30597;49.628;10.850;2023-02-22T08:41:23;21.30;49.80
44863;DHT22;30597;49.628;10.850;2023-02-22T08:43:48;21.30;49.50
44863;DHT22;30597;49.628;10.850;2023-02-22T08:46:16;21.30;49.50
44863;DHT22;30597;49.628;10.850;2023-02-22T08:48:51;21.30;49.50
44863;DHT22;30597;49.628;10.850;2023-02-22T08:51:17;21.30;49.60
44863;DHT22;30597;49.628;10.850;2023-02-22T08:53:43;21.20;49.60
44863;DHT22;30597;49.628;10.850;2023-02-22T08:56:09;21.20;49.60
44863;DHT22;30597;49.628;10.850;2023-02-22T08:58:34;21.10;49.60
44863;DHT22;30597;49.628;10.850;2023-02-22T09:01:00;21.10;49.70
44863;DHT22;30597;49.628;10.850;2023-02-22T09:03:25;21.10;49.70
44863;DHT22;30597;49.628;10.850;2023-02-22T09:05:51;21.00;49.60
44863;DHT22;30597;49.628;10.850;2023-02-22T09:08:17;21.00;49.70
44863;DHT22;30597;49.628;10.850;2023-02-22T09:10:42;21.00;49.80
44863;DHT22;30597;49.628;10.850;2023-02-22T09:13:10;20.90;49.90
44863;DHT22;30597;49.628;10.850;2023-02-22T09:15:36;20.90;49.90
44863;DHT22;30597;49.628;10.850;2023-02-22T09:18:05;20.80;49.90
44863;DHT22;30597;49.628;10.850;2023-02-22T09:20:33;20.70;49.90
44863;DHT22;30597;49.628;10.850;2023-02-22T09:23:00;20.70;50.00
44863;DHT22;30597;49.628;10.850;2023-02-22T09:25:27;20.70;50.10
44863;DHT22;30597;49.628;10.850;2023-02-22T09:27:54;20.60;50.10
44863;DHT22;30597;49.628;10.850;2023-02-22T09:30:23;20.60;50.20
44863;DHT22;30597;49.628;10.850;2023-02-22T09:32:53;20.60;50.80
44863;DHT22;30597;49.628;10.850;2023-02-22T09:35:20;20.70;50.10
44863;DHT22;30597;49.628;10.850;2023-02-22T09:38:00;20.80;50.00
44863;DHT22;30597;49.628;10.850;2023-02-22T09:40:29;20.80;49.80
44863;DHT22;30597;49.628;10.850;2023-02-22T09:43:04;20.90;49.60
44863;DHT22;30597;49.628;10.850;2023-02-22T09:45:40;21.00;49.60
44863;DHT22;30597;49.628;10.850;2023-02-22T09:48:14;21.10;49.50
44863;DHT22;30597;49.628;10.850;2023-02-22T09:50:42;21.10;49.30
44863;DHT22;30597;49.628;10.850;2023-02-22T09:53:26;21.20;49.30
44863;DHT22;30597;49.628;10.850;2023-02-22T09:56:03;21.20;49.20
44863;DHT22;30597;49.628;10.850;2023-02-22T10:01:03;21.30;49.10
44863;DHT22;30597;49.628;10.850;2023-02-22T10:03:53;21.30;49.00
44863;DHT22;30597;49.628;10.850;2023-02-22T10:06:23;21.40;49.00
44863;DHT22;30597;49.628;10.850;2023-02-22T10:08:51;21.40;48.90
44863;DHT22;30597;49.628;10.850;2023-02-22T10:17:09;21.50;48.80
44863;DHT22;30597;49.628;10.850;2023-02-22T10:19:48;21.50;48.80
44863;DHT22;30597;49.628;10.850;2023-02-22T10:25:37;21.50;48.70
44863;DHT22;30597;49.628;10.850;2023-02-22T10:28:21;21.50;48.70
44863;DHT22;30597;49.628;10.850;2023-02-22T10:30:57;21.50;48.60
44863;DHT22;30597;49.628;10.850;2023-02-22T10:33:31;21.40;48.60
44863;DHT22;30597;49.628;10.850;2023-02-22T10:35:58;21.40;48.70
44863;DHT22;30597;49.628;10.850;2023-02-22T10:38:32;21.40;48.60
44863;DHT22;30597;49.628;10.850;2023-02-22T10:43:42;21.30;48.70
44863;DHT22;30597;49.628;10.850;2023-02-22T10:46:13;21.30;48.80
44863;DHT22;30597;49.628;10.850;2023-02-22T10:48:41;21.20;48.80
44863;DHT22;30597;49.628;10.850;2023-02-22T10:51:09;21.20;48.80
44863;DHT22;30597;49.628;10.850;2023-02-22T10:53:36;21.20;48.90
44863;DHT22;30597;49.628;10.850;2023-02-22T10:56:18;21.10;48.80
44863;DHT22;30597;49.628;10.850;2023-02-22T10:59:02;21.10;48.90
44863;DHT22;30597;49.628;10.850;2023-02-22T11:06:35;20.90;49.90
44863;DHT22;30597;49.628;10.850;2023-02-22T11:09:19;21.00;49.00
44863;DHT22;30597;49.628;10.850;2023-02-22T11:11:49;20.90;48.80
44863;DHT22;30597;49.628;10.850;2023-02-22T11:14:27;21.00;48.80
44863;DHT22;30597;49.628;10.850;2023-02-22T11:16:55;21.10;49.40
44863;DHT22;30597;49.628;10.850;2023-02-22T11:19:24;21.10;48.60
44863;DHT22;30597;49.628;10.850;2023-02-22T11:21:52;21.20;48.50
44863;DHT22;30597;49.628;10.850;2023-02-22T11:24:21;21.30;48.50
44863;DHT22;30597;49.628;10.850;2023-02-22T11:26:57;21.30;48.30
44863;DHT22;30597;49.628;10.850;2023-02-22T11:29:35;21.40;48.30
44863;DHT22;30597;49.628;10.850;2023-02-22T11:32:17;21.50;48.20
44863;DHT22;30597;49.628;10.850;2023-02-22T11:34:47;21.50;48.10
44863;DHT22;30597;49.628;10.850;2023-02-22T11:40:06;21.60;48.10
44863;DHT22;30597;49.628;10.850;2023-02-22T11:42:32;21.60;47.80
44863;DHT22;30597;49.628;10.850;2023-02-22T11:45:24;21.60;47.80
44863;DHT22;30597;49.628;10.850;2023-02-22T11:47:54;21.70;47.60
44863;DHT22;30597;49.628;10.850;2023-02-22T11:50:37;21.70;47.50
44863;DHT22;30597;49.628;10.850;2023-02-22T11:54:00;21.70;47.50
44863;DHT22;30597;49.628;10.850;2023-02-22T12:01:22;21.70;47.40
44863;DHT22;30597;49.628;10.850;2023-02-22T12:04:17;21.70;47.30
44863;DHT22;30597;49.628;10.850;2023-02-22T12:07:04;21.70;47.30
44863;DHT22;30597;49.628;10.850;2023-02-22T12:09:45;21.70;47.40
44863;DHT22;30597;49.628;10.850;2023-02-22T12:15:26;21.60;47.40
44863;DHT22;30597;49.628;10.850;2023-02-22T12:18:01;21.60;47.50
44863;DHT22;30597;49.628;10.850;2023-02-22T12:20:36;21.60;47.50
44863;DHT22;30597;49.628;10.850;2023-02-22T12:28:31;21.50;47.60
44863;DHT22;30597;49.628;10.850;2023-02-22T12:31:18;21.40;47.50
44863;DHT22;30597;49.628;10.850;2023-02-22T12:36:34;21.40;47.70
44863;DHT22;30597;49.628;10.850;2023-02-22T12:39:04;21.30;47.70
44863;DHT22;30597;49.628;10.850;2023-02-22T12:41:41;21.30;47.80
44863;DHT22;30597;49.628;10.850;2023-02-22T12:46:59;21.30;47.90
44863;DHT22;30597;49.628;10.850;2023-02-22T12:55:06;21.30;47.80
44863;DHT22;30597;49.628;10.850;2023-02-22T12:57:50;21.40;47.80
44863;DHT22;30597;49.628;10.850;2023-02-22T13:00:33;21.40;47.80
44863;DHT22;30597;49.628;10.850;2023-02-22T13:05:36;21.50;47.70
44863;DHT22;30597;49.628;10.850;2023-02-22T13:08:06;21.60;47.60
44863;DHT22;30597;49.628;10.850;2023-02-22T13:16:21;21.70;47.40
44863;DHT22;30597;49.628;10.850;2023-02-22T13:22:15;21.80;47.50
44863;DHT22;30597;49.628;10.850;2023-02-22T13:25:02;21.80;47.40
44863;DHT22;30597;49.628;10.850;2023-02-22T13:27:34;21.80;47.30
44863;DHT22;30597;49.628;10.850;2023-02-22T13:30:02;21.80;47.30
44863;DHT22;30597;49.628;10.850;2023-02-22T13:33:03;21.90;47.30
44863;DHT22;30597;49.628;10.850;2023-02-22T13:35:57;21.90;47.20
44863;DHT22;30597;49.628;10.850;2023-02-22T13:52:17;21.80;47.20
44863;DHT22;30597;49.628;10.850;2023-02-22T13:54:53;21.80;47.30
44863;DHT22;30597;49.628;10.850;2023-02-22T14:02:59;21.70;47.30
44863;DHT22;30597;49.628;10.850;2023-02-22T14:05:49;21.60;47.30
44863;DHT22;30597;49.628;10.850;2023-02-22T14:10:53;21.60;47.40
44863;DHT22;30597;49.628;10.850;2023-02-22T14:13:27;21.60;47.50
44863;DHT22;30597;49.628;10.850;2023-02-22T14:21:13;21.50;47.50
44863;DHT22;30597;49.628;10.850;2023-02-22T14:26:25;21.50;47.60
44863;DHT22;30597;49.628;10.850;2023-02-22T14:28:58;21.50;47.60
44863;DHT22;30597;49.628;10.850;2023-02-22T14:32:17;21.50;47.50
44863;DHT22;30597;49.628;10.850;2023-02-22T14:34:50;21.60;47.60
44863;DHT22;30597;49.628;10.850;2023-02-22T14:37:24;21.60;47.50
44863;DHT22;30597;49.628;10.850;2023-02-22T14:39:56;21.60;47.50
44863;DHT22;30597;49.628;10.850;2023-02-22T14:42:38;21.70;47.50
44863;DHT22;30597;49.628;10.850;2023-02-22T14:48:05;21.70;47.30
44863;DHT22;30597;49.628;10.850;2023-02-22T14:50:45;21.80;47.30
44863;DHT22;30597;49.628;10.850;2023-02-22T14:53:35;21.80;47.30
44863;DHT22;30597;49.628;10.850;2023-02-22T14:56:07;21.80;47.20
44863;DHT22;30597;49.628;10.850;2023-02-22T14:58:43;21.80;47.20
44863;DHT22;30597;49.628;10.850;2023-02-22T15:03:51;21.90;47.30
44863;DHT22;30597;49.628;10.850;2023-02-22T15:06:24;21.90;47.20
44863;DHT22;30597;49.628;10.850;2023-02-22T15:09:17;21.90;47.20
44863;DHT22;30597;49.628;10.850;2023-02-22T15:14:23;21.80;47.10
44863;DHT22;30597;49.628;10.850;2023-02-22T15:16:54;21.80;47.20
44863;DHT22;30597;49.628;10.850;2023-02-22T15:19:25;21.80;47.20
44863;DHT22;30597;49.628;10.850;2023-02-22T15:21:53;21.80;47.20
44863;DHT22;30597;49.628;10.850;2023-02-22T15:24:30;21.70;47.20
44863;DHT22;30597;49.628;10.850;2023-02-22T15:27:06;21.70;47.30
44863;DHT22;30597;49.628;10.850;2023-02-22T15:29:36;21.70;47.40
44863;DHT22;30597;49.628;10.850;2023-02-22T15:35:04;21.60;47.30
44863;DHT22;30597;49.628;10.850;2023-02-22T15:37:29;21.60;47.40
44863;DHT22;30597;49.628;10.850;2023-02-22T15:40:17;21.50;47.40
44863;DHT22;30597;49.628;10.850;2023-02-22T15:42:51;21.50;47.60
44863;DHT22;30597;49.628;10.850;2023-02-22T15:45:23;21.40;47.60
44863;DHT22;30597;49.628;10.850;2023-02-22T15:47:51;21.30;47.60
44863;DHT22;30597;49.628;10.850;2023-02-22T15:53:16;21.20;47.90
44863;DHT22;30597;49.628;10.850;2023-02-22T15:55:47;21.20;48.00
44863;DHT22;30597;49.628;10.850;2023-02-22T16:00:43;21.20;48.00
44863;DHT22;30597;49.628;10.850;2023-02-22T16:03:16;21.30;47.90
44863;DHT22;30597;49.628;10.850;2023-02-22T16:05:49;21.40;47.90
44863;DHT22;30597;49.628;10.850;2023-02-22T16:08:19;21.50;47.80
44863;DHT22;30597;49.628;10.850;2023-02-22T16:10:59;21.50;47.80
44863;DHT22;30597;49.628;10.850;2023-02-22T16:13:31;21.60;47.80
44863;DHT22;30597;49.628;10.850;2023-02-22T16:16:03;21.60;47.70
44863;DHT22;30597;49.628;10.850;2023-02-22T16:18:37;21.60;47.60
44863;DHT22;30597;49.628;10.850;2023-02-22T16:21:14;21.60;47.60
44863;DHT22;30597;49.628;10.850;2023-02-22T16:23:52;21.60;47.50
44863;DHT22;30597;49.628;10.850;2023-02-22T16:26:30;21.70;47.50
44863;DHT22;30597;49.628;10.850;2023-02-22T16:29:06;21.70;47.10
44863;DHT22;30597;49.628;10.850;2023-02-22T16:31:36;21.70;45.70
44863;DHT22;30597;49.628;10.850;2023-02-22T16:34:04;21.60;44.70
44863;DHT22;30597;49.628;10.850;2023-02-22T16:36:47;21.60;44.20
44863;DHT22;30597;49.628;10.850;2023-02-22T16:39:19;21.60;44.00
44863;DHT22;30597;49.628;10.850;2023-02-22T16:41:48;21.60;44.00
44863;DHT22;30597;49.628;10.850;2023-02-22T16:44:15;21.60;44.20
44863;DHT22;30597;49.628;10.850;2023-02-22T16:46:41;21.60;44.40
44863;DHT22;30597;49.628;10.850;2023-02-22T16:49:11;21.60;44.50
44863;DHT22;30597;49.628;10.850;2023-02-22T16:52:00;21.60;44.60
44863;DHT22;30597;49.628;10.850;2023-02-22T16:54:32;21.60;44.70
44863;DHT22;30597;49.628;10.850;2023-02-22T16:57:02;21.50;44.80
44863;DHT22;30597;49.628;10.850;2023-02-22T16:59:31;21.50;45.00
44863;DHT22;30597;49.628;10.850;2023-02-22T17:01:57;21.50;45.10
44863;DHT22;30597;49.628;10.850;2023-02-22T17:04:24;21.50;45.20
44863;DHT22;30597;49.628;10.850;2023-02-22T17:06:51;21.40;45.30
44863;DHT22;30597;49.628;10.850;2023-02-22T17:09:17;21.40;45.40
44863;DHT22;30597;49.628;10.850;2023-02-22T17:11:45;21.40;45.50
44863;DHT22;30597;49.628;10.850;2023-02-22T17:14:17;21.30;45.60
44863;DHT22;30597;49.628;10.850;2023-02-22T17:16:43;21.30;45.80
44863;DHT22;30597;49.628;10.850;2023-02-22T17:19:19;21.20;45.80
44863;DHT22;30597;49.628;10.850;2023-02-22T17:21:45;21.20;46.00
44863;DHT22;30597;49.628;10.850;2023-02-22T17:24:12;21.10;46.00
44863;DHT22;30597;49.628;10.850;2023-02-22T17:26:39;21.10;46.20
44863;DHT22;30597;49.628;10.850;2023-02-22T17:29:05;21.00;46.50
44863;DHT22;30597;49.628;10.850;2023-02-22T17:31:30;21.10;46.90
44863;DHT22;30597;49.628;10.850;2023-02-22T17:34:00;21.10;47.30
44863;DHT22;30597;49.628;10.850;2023-02-22T17:36:27;21.20;47.20
44863;DHT22;30597;49.628;10.850;2023-02-22T17:38:53;21.30;47.00
44863;DHT22;30597;49.628;10.850;2023-02-22T17:41:18;21.30;46.80
44863;DHT22;30597;49.628;10.850;2023-02-22T17:43:44;21.40;46.80
44863;DHT22;30597;49.628;10.850;2023-02-22T17:46:09;21.40;46.70
44863;DHT22;30597;49.628;10.850;2023-02-22T17:48:35;21.50;46.70
44863;DHT22;30597;49.628;10.850;2023-02-22T17:51:06;21.50;46.60
44863;DHT22;30597;49.628;10.850;2023-02-22T17:53:32;21.60;46.50
44863;DHT22;30597;49.628;10.850;2023-02-22T17:55:58;21.60;46.50
44863;DHT22;30597;49.628;10.850;2023-02-22T17:58:23;21.60;46.40
44863;DHT22;30597;49.628;10.850;2023-02-22T18:00:53;21.70;46.40
44863;DHT22;30597;49.628;10.850;2023-02-22T18:03:24;21.70;46.30
44863;DHT22;30597;49.628;10.850;2023-02-22T18:05:52;21.70;46.40